createdAt,value
2023-02-18T00:00:05.399Z,19.10
2023-02-18T00:05:07.241Z,19.98
2023-02-18T00:10:12.692Z,17.92
2023-02-18T00:15:14.484Z,17.58
2023-02-18T00:20:16.359Z,16.27
2023-02-18T00:25:18.284Z,15.35
2023-02-18T00:30:20.285Z,14.30
2023-02-18T00:35:22.235Z,18.20
2023-02-18T00:40:24.086Z,21.85
2023-02-18T00:45:25.888Z,12.60
2023-02-18T00:50:27.815Z,14.05
2023-02-18T00:55:29.701Z,12.20
2023-02-18T01:00:31.493Z,12.45
2023-02-18T01:05:33.764Z,11.40
2023-02-18T01:10:36.504Z,11.32
2023-02-18T01:15:40.038Z,11.57
2023-02-18T01:20:43.992Z,9.25
2023-02-18T01:25:45.996Z,8.82
2023-02-18T01:30:47.819Z,6.85
2023-02-18T01:35:50.518Z,6.50
2023-02-18T01:40:54.330Z,3.95
2023-02-18T01:46:03.511Z,4.95
2023-02-18T01:51:20.027Z,3.35
2023-02-18T01:56:34.823Z,3.38
2023-02-18T02:01:37.270Z,2.03
2023-02-18T02:06:39.358Z,2.17
2023-02-18T02:12:13.491Z,1.48
2023-02-18T02:17:21.384Z,4.47
2023-02-18T02:22:41.227Z,2.92
2023-02-18T02:28:17.713Z,1.60
2023-02-18T02:33:25.469Z,1.60
2023-02-18T02:38:37.836Z,4.32
2023-02-18T02:43:53.002Z,2.38
2023-02-18T02:49:09.846Z,4.28
2023-02-18T02:54:18.309Z,3.25
2023-02-18T02:59:24.726Z,4.75
2023-02-18T03:04:41.912Z,3.38
2023-02-18T03:10:04.310Z,3.90
2023-02-18T03:15:22.091Z,3.35
2023-02-18T03:20:26.172Z,2.58
2023-02-18T03:25:29.709Z,3.60
2023-02-18T03:30:46.296Z,3.30
2023-02-18T03:35:49.921Z,3.90
2023-02-18T03:40:51.984Z,4.05
2023-02-18T03:45:54.343Z,3.03
2023-02-18T03:50:56.141Z,3.28
2023-02-18T03:55:57.885Z,2.83
2023-02-18T04:00:59.674Z,4.13
2023-02-18T04:06:01.551Z,2.88
2023-02-18T04:11:05.060Z,2.90
2023-02-18T04:16:07.462Z,4.68
2023-02-18T04:21:09.765Z,3.03
2023-02-18T04:26:11.658Z,2.67
2023-02-18T04:31:16.199Z,3.22
2023-02-18T04:36:17.997Z,3.13
2023-02-18T04:41:19.776Z,2.95
2023-02-18T04:46:21.582Z,2.33
2023-02-18T04:51:23.503Z,2.47
2023-02-18T04:56:25.363Z,2.40
2023-02-18T05:01:27.237Z,2.38
2023-02-18T05:06:29.342Z,2.72
2023-02-18T05:11:31.082Z,4.03
2023-02-18T05:16:32.903Z,2.72
2023-02-18T05:21:34.742Z,2.85
2023-02-18T05:26:36.838Z,2.67
2023-02-18T05:31:38.793Z,1.83
2023-02-18T05:36:40.902Z,2.95
2023-02-18T05:41:42.668Z,1.70
2023-02-18T05:46:44.492Z,1.30
2023-02-18T05:51:46.406Z,1.13
2023-02-18T05:56:48.326Z,1.83
2023-02-18T06:01:50.468Z,1.65
2023-02-18T06:06:52.280Z,4.03
2023-02-18T06:11:54.171Z,3.30
2023-02-18T06:16:55.958Z,6.03
2023-02-18T06:21:57.991Z,7.20
2023-02-18T06:26:59.982Z,4.47
2023-02-18T06:32:01.941Z,6.57
2023-02-18T06:37:03.842Z,6.03
2023-02-18T06:42:05.681Z,9.70
2023-02-18T06:47:07.588Z,11.05
2023-02-18T06:52:09.396Z,13.00
2023-02-18T06:57:11.199Z,9.93
2023-02-18T07:02:15.795Z,10.63
2023-02-18T07:07:17.586Z,10.88
2023-02-18T07:12:19.331Z,16.48
2023-02-18T07:17:21.161Z,9.45
2023-02-18T07:22:23.416Z,11.75
2023-02-18T07:27:25.226Z,7.35
2023-02-18T07:32:27.142Z,13.75
2023-02-18T07:37:28.918Z,16.50
2023-02-18T07:42:30.698Z,11.93
2023-02-18T07:47:32.502Z,14.52
2023-02-18T07:52:34.584Z,18.02
2023-02-18T07:57:56.319Z,12.73
2023-02-18T08:02:58.173Z,15.40
2023-02-18T08:07:59.969Z,14.13
2023-02-18T08:13:01.782Z,11.15
2023-02-18T08:18:03.785Z,5.75
2023-02-18T08:23:08.563Z,13.63
2023-02-18T08:28:10.395Z,15.35
2023-02-18T08:33:12.603Z,10.60
2023-02-18T08:38:14.836Z,6.55
2023-02-18T08:43:18.372Z,16.58
2023-02-18T08:48:20.636Z,14.30
2023-02-18T08:53:23.162Z,9.63
2023-02-18T08:58:24.907Z,6.03
2023-02-18T09:03:27.051Z,7.13
2023-02-18T09:08:29.169Z,11.93
2023-02-18T09:13:31.816Z,6.90
2023-02-18T09:18:35.972Z,5.32
2023-02-18T09:23:38.097Z,8.15
2023-02-18T09:28:40.464Z,8.02
2023-02-18T09:33:45.995Z,3.88
2023-02-18T09:38:48.773Z,6.13
2023-02-18T09:43:55.715Z,7.20
2023-02-18T09:48:58.653Z,5.22
2023-02-18T09:54:00.517Z,8.50
2023-02-18T09:59:06.097Z,7.15
2023-02-18T10:04:19.302Z,8.20
2023-02-18T10:09:29.631Z,7.40
2023-02-18T10:14:31.828Z,6.47
2023-02-18T10:19:41.366Z,9.25
2023-02-18T10:24:55.508Z,8.02
2023-02-18T10:30:23.892Z,5.57
2023-02-18T10:35:51.017Z,6.22
2023-02-18T10:41:04.852Z,4.63
2023-02-18T10:46:18.957Z,9.00
2023-02-18T10:51:27.101Z,9.02
2023-02-18T10:56:40.670Z,9.10
2023-02-18T11:01:43.828Z,8.02
2023-02-18T11:06:48.432Z,6.85
2023-02-18T11:12:01.343Z,9.93
2023-02-18T11:17:16.691Z,7.60
2023-02-18T11:22:25.786Z,11.15
2023-02-18T11:27:44.520Z,12.63
2023-02-18T11:32:54.054Z,13.98
2023-02-18T11:38:01.230Z,10.40
2023-02-18T11:43:16.455Z,6.53
2023-02-18T11:48:23.259Z,7.32
2023-02-18T11:53:34.425Z,7.60
2023-02-18T11:58:44.031Z,11.10
2023-02-18T12:04:08.296Z,8.93
2023-02-18T12:09:26.462Z,12.82
2023-02-18T12:14:28.545Z,6.97
2023-02-18T12:19:41.214Z,10.05
2023-02-18T12:24:48.849Z,8.07
2023-02-18T12:29:56.914Z,8.77
2023-02-18T12:35:16.669Z,13.55
2023-02-18T12:40:46.559Z,7.82
2023-02-18T12:46:06.497Z,7.73
2023-02-18T12:51:38.942Z,10.57
2023-02-18T12:57:07.706Z,14.60
2023-02-18T13:02:24.697Z,7.32
2023-02-18T13:07:51.050Z,14.15
2023-02-18T13:13:11.420Z,11.10
2023-02-18T13:18:20.493Z,12.13
2023-02-18T13:23:27.927Z,10.95
2023-02-18T13:28:40.491Z,11.23
2023-02-18T13:33:56.886Z,12.88
2023-02-18T13:39:02.443Z,8.00
2023-02-18T13:44:09.548Z,14.05
2023-02-18T13:49:13.612Z,7.88
2023-02-18T13:54:25.048Z,11.98
2023-02-18T13:59:41.690Z,7.50
2023-02-18T14:04:44.493Z,10.57
2023-02-18T14:09:46.952Z,9.10
2023-02-18T14:14:48.753Z,12.02
2023-02-18T14:20:19.316Z,14.70
2023-02-18T14:25:21.020Z,12.55
2023-02-18T14:30:22.765Z,6.10
2023-02-18T14:35:40.793Z,9.38
2023-02-18T14:40:51.896Z,9.52
2023-02-18T14:46:02.496Z,12.88
2023-02-18T14:51:05.555Z,7.63
2023-02-18T14:56:13.034Z,7.35
2023-02-18T15:01:22.155Z,9.35
2023-02-18T15:06:34.915Z,9.43
2023-02-18T15:11:44.598Z,9.40
2023-02-18T15:16:47.146Z,5.78
2023-02-18T15:21:51.062Z,7.30
2023-02-18T15:26:55.906Z,5.40
2023-02-18T15:31:58.603Z,9.35
2023-02-18T15:37:02.714Z,7.38
2023-02-18T15:42:26.156Z,10.65
2023-02-18T15:47:28.666Z,5.10
2023-02-18T15:52:33.810Z,13.63
2023-02-18T15:57:36.954Z,7.35
2023-02-18T16:02:54.477Z,10.73
2023-02-18T16:08:05.346Z,5.75
2023-02-18T16:13:07.451Z,7.40
2023-02-18T16:18:37.280Z,11.02
2023-02-18T16:23:44.894Z,7.43
2023-02-18T16:28:47.413Z,8.02
2023-02-18T16:33:50.100Z,8.77
2023-02-18T16:38:51.869Z,10.82
2023-02-18T16:43:53.989Z,12.82
2023-02-18T16:48:56.663Z,6.30
2023-02-18T16:53:58.631Z,4.57
2023-02-18T16:59:00.458Z,6.72
2023-02-18T17:04:02.894Z,5.43
2023-02-18T17:09:17.073Z,7.18
2023-02-18T17:14:20.792Z,4.57
2023-02-18T17:19:22.868Z,8.00
2023-02-18T17:24:24.707Z,7.63
2023-02-18T17:29:26.874Z,6.85
2023-02-18T17:34:31.190Z,9.73
2023-02-18T17:39:33.054Z,9.63
2023-02-18T17:44:34.988Z,10.15
2023-02-18T17:49:36.796Z,7.00
2023-02-18T17:54:38.622Z,8.23
2023-02-18T17:59:40.442Z,9.38
2023-02-18T18:04:42.516Z,10.35
2023-02-18T18:09:44.393Z,11.65
2023-02-18T18:14:46.210Z,13.18
2023-02-18T18:19:48.022Z,11.30
2023-02-18T18:24:50.532Z,12.15
2023-02-18T18:29:53.807Z,13.07
2023-02-18T18:34:55.595Z,13.70
2023-02-18T18:39:57.728Z,9.13
2023-02-18T18:44:59.655Z,9.90
2023-02-18T18:50:01.870Z,10.15
2023-02-18T18:55:04.180Z,7.68
2023-02-18T19:00:09.011Z,13.10
2023-02-18T19:05:27.399Z,11.85
2023-02-18T19:10:33.950Z,11.85
2023-02-18T19:15:36.892Z,13.13
2023-02-18T19:20:40.901Z,10.13
2023-02-18T19:25:45.838Z,11.80
2023-02-18T19:30:47.839Z,8.77
2023-02-18T19:35:49.815Z,8.25
2023-02-18T19:40:53.938Z,8.57
2023-02-18T19:45:55.907Z,14.43
2023-02-18T19:50:57.755Z,7.38
2023-02-18T19:56:03.341Z,10.55
2023-02-18T20:01:17.549Z,8.70
2023-02-18T20:06:20.998Z,8.82
2023-02-18T20:11:23.075Z,7.40
2023-02-18T20:16:24.950Z,12.73
2023-02-18T20:21:28.122Z,8.95
2023-02-18T20:26:29.901Z,10.80
2023-02-18T20:31:31.841Z,13.73
2023-02-18T20:36:33.788Z,11.23
2023-02-18T20:41:35.558Z,13.25
2023-02-18T20:46:38.803Z,11.25
2023-02-18T20:51:41.212Z,11.20
2023-02-18T20:56:43.953Z,13.73
2023-02-18T21:01:46.778Z,10.85
2023-02-18T21:06:50.749Z,10.82
2023-02-18T21:11:52.543Z,9.02
2023-02-18T21:16:54.602Z,18.10
2023-02-18T21:21:56.978Z,8.68
2023-02-18T21:26:58.883Z,7.57
2023-02-18T21:32:01.288Z,10.20
2023-02-18T21:37:03.131Z,8.07
2023-02-18T21:42:06.904Z,7.88
2023-02-18T21:47:08.770Z,8.32
2023-02-18T21:52:10.599Z,9.93
2023-02-18T21:57:17.518Z,9.90
2023-02-18T22:02:22.008Z,8.48
2023-02-18T22:07:26.212Z,10.07
2023-02-18T22:12:28.202Z,8.57
2023-02-18T22:17:32.179Z,6.55
2023-02-18T22:22:34.512Z,8.40
2023-02-18T22:27:36.433Z,6.40
2023-02-18T22:32:38.239Z,5.57
2023-02-18T22:37:40.025Z,6.20
2023-02-18T22:42:41.790Z,10.13
2023-02-18T22:47:43.552Z,8.57
2023-02-18T22:52:45.312Z,9.43
2023-02-18T22:57:47.096Z,6.85
2023-02-18T23:02:53.240Z,7.95
2023-02-18T23:07:55.030Z,7.95
2023-02-18T23:12:56.803Z,8.47
2023-02-18T23:17:58.831Z,8.75
2023-02-18T23:23:00.746Z,6.65
2023-02-18T23:28:02.787Z,8.40
2023-02-18T23:33:04.631Z,8.73
2023-02-18T23:38:06.564Z,13.35
2023-02-18T23:43:08.381Z,8.73
2023-02-18T23:48:10.160Z,8.52
2023-02-18T23:53:11.950Z,10.85
2023-02-18T23:58:13.868Z,9.23
